Janesville, Iowa
Current Conditions -  °F | °C
As of 7:54 AM on Thursday 23 Oct 2014 (Local Time) from KALO Reporting Station
Moderate Rain Moderate Rain  
Wind Chill: 43°   Ceiling: 8000
Heat Index: 47°   Visibility: 5mi
Dew Point: 45°   Wind: 9mph
Humidity: 93%   Direction: 160°SSE
Pressure: 30.04"   Gusts: NA
Location:  42.65°N, 92.46°W
Report Text: KALO 231254Z 16008KT 5SM RA BR FEW033 BKN080 OVC100 08/07 A3004 RMK AO2 RAB05 SLP176 P0005 T00830072
Loading
Personal Weather Stations






























Interactive Weather Map
Tropical Storm Tracking
New forecast layout! Learn more

10-Day Weather Forecast

Advertisements
Track Severe Weather on mobile